Time;durP1;ratioP1;P1;durP2;ratioP2;P2;SDS_P1;SDS_P2;PMS_P1;PMS_P2;Temp;Humidity;BMP_temperature;BMP_pressure;BME280_temperature;BME280_humidity;BME280_pressure;Samples;Min_cycle;Max_cycle;Signal;HPM_P1;HPM_P2
2022/12/22 03:27:24;;;;;;;16.50;11.90;;;8.20;99.90;;;;;;5031197;28;20465;-68
2022/12/22 03:29:50;;;;;;;19.17;11.67;;;8.20;99.90;;;;;;5031264;28;20605;-68
2022/12/22 03:32:19;;;;;;;16.50;11.00;;;8.10;99.90;;;;;;5031203;28;20458;-68
2022/12/22 03:34:45;;;;;;;15.73;10.70;;;8.10;99.90;;;;;;5031156;28;20473;-68
2022/12/22 03:37:12;;;;;;;17.70;10.97;;;8.10;99.90;;;;;;5030932;28;20512;-68
2022/12/22 03:39:38;;;;;;;13.03;9.40;;;8.10;99.90;;;;;;5031054;28;20450;-68
2022/12/22 03:47:35;;;;;;;8.27;5.83;;;8.10;99.90;;;;;;5031356;28;20984;-68
2022/12/22 03:50:01;;;;;;;7.13;5.57;;;8.10;99.90;;;;;;5030830;28;20500;-68
2022/12/22 03:52:28;;;;;;;5.33;4.83;;;8.10;99.90;;;;;;5031158;28;20453;-68
2022/12/22 03:54:54;;;;;;;6.87;5.10;;;8.10;99.90;;;;;;5030641;28;20516;-69
2022/12/22 03:57:21;;;;;;;6.57;4.57;;;8.20;99.90;;;;;;5030931;28;20504;-67
2022/12/22 03:59:48;;;;;;;4.40;3.93;;;8.20;99.90;;;;;;5031111;28;20514;-68
2022/12/22 04:02:14;;;;;;;6.13;4.30;;;8.20;99.90;;;;;;5030778;28;20458;-67
2022/12/22 04:04:42;;;;;;;4.20;3.80;;;8.20;99.90;;;;;;5030696;28;20520;-68
2022/12/22 04:07:09;;;;;;;3.73;3.33;;;8.20;99.90;;;;;;5030931;28;20450;-68
2022/12/22 04:12:52;;;;;;;2.87;2.67;;;8.20;99.90;;;;;;5030953;28;21001;-68
2022/12/22 04:15:03;;;;;;;2.93;2.73;;;8.20;99.90;;;;;;5021017;28;20465;-68
2022/12/22 04:17:29;;;;;;;4.33;2.90;;;8.20;99.90;;;;;;5030510;28;20438;-68
2022/12/22 04:19:57;;;;;;;2.80;2.60;;;8.20;99.90;;;;;;5030485;28;20934;-68
2022/12/22 04:22:24;;;;;;;2.77;2.57;;;8.20;99.90;;;;;;5030556;28;20446;-68
2022/12/22 04:24:50;;;;;;;3.37;3.07;;;8.30;99.90;;;;;;5030447;28;20810;-68
2022/12/22 04:27:17;;;;;;;2.70;2.50;;;8.30;99.90;;;;;;5029915;28;20450;-68
2022/12/22 04:29:44;;;;;;;2.53;2.33;;;8.30;99.90;;;;;;5031070;28;20458;-68
2022/12/22 04:32:10;;;;;;;4.60;2.10;;;8.30;99.90;;;;;;5030140;28;20454;-68
2022/12/22 04:34:37;;;;;;;5.03;2.43;;;8.30;99.90;;;;;;5030517;28;20461;-68
2022/12/22 04:37:05;;;;;;;2.30;2.20;;;8.40;99.90;;;;;;5030131;28;20465;-68
2022/12/22 04:39:31;;;;;;;2.53;2.10;;;8.40;99.90;;;;;;5030728;28;20495;-68
2022/12/22 04:41:58;;;;;;;2.67;2.43;;;8.50;99.90;;;;;;5030422;28;20454;-69
2022/12/22 04:44:25;;;;;;;2.77;2.60;;;8.50;99.90;;;;;;5022534;28;20441;-69
2022/12/22 04:46:51;;;;;;;3.00;2.80;;;8.50;99.90;;;;;;5030512;28;20840;-68
2022/12/22 04:49:18;;;;;;;2.53;2.40;;;8.60;99.90;;;;;;5030202;28;20493;-69
2022/12/22 04:51:44;;;;;;;2.73;2.53;;;8.60;99.90;;;;;;5030391;28;20458;-69
2022/12/22 04:54:12;;;;;;;3.53;3.23;;;8.60;99.90;;;;;;5030096;28;20454;-68
2022/12/22 04:56:39;;;;;;;3.50;3.20;;;8.60;99.90;;;;;;5030607;28;20446;-69
2022/12/22 04:59:05;;;;;;;4.20;3.10;;;8.60;99.90;;;;;;5030251;28;20508;-69
2022/12/22 05:01:32;;;;;;;2.53;2.33;;;8.60;99.90;;;;;;5030370;28;20453;-69
2022/12/22 05:03:59;;;;;;;2.07;1.97;;;8.60;99.90;;;;;;5030425;28;20462;-69
2022/12/22 05:06:25;;;;;;;2.80;2.40;;;8.70;99.90;;;;;;5031304;28;21039;-69
2022/12/22 05:08:52;;;;;;;2.47;2.27;;;8.70;99.90;;;;;;5033994;28;20563;-69
2022/12/22 05:11:20;;;;;;;3.50;2.03;;;8.80;99.90;;;;;;5033477;28;20947;-69
2022/12/22 05:13:47;;;;;;;3.00;2.10;;;8.90;99.90;;;;;;5034197;28;20495;-69
2022/12/22 05:16:16;;;;;;;4.67;2.20;;;8.90;99.90;;;;;;5033316;28;20524;-69
2022/12/22 05:18:44;;;;;;;2.17;2.07;;;9.00;99.90;;;;;;5033586;28;20984;-69
2022/12/22 05:21:13;;;;;;;2.70;2.43;;;9.00;99.90;;;;;;5033395;28;20450;-69
2022/12/22 05:23:40;;;;;;;2.30;2.10;;;9.00;99.90;;;;;;5034017;28;20445;-69
2022/12/22 05:26:07;;;;;;;2.90;2.70;;;9.10;99.90;;;;;;5033420;28;20993;-69
2022/12/22 05:28:35;;;;;;;4.33;2.60;;;9.10;99.90;;;;;;5033207;28;20489;-69
2022/12/22 05:31:04;;;;;;;4.10;2.83;;;9.10;99.90;;;;;;5033332;28;20458;-69
2022/12/22 05:33:31;;;;;;;2.60;2.40;;;9.10;99.90;;;;;;5033288;28;20458;-69
2022/12/22 05:35:57;;;;;;;7.03;3.47;;;9.10;99.90;;;;;;5033776;28;20473;-69
2022/12/22 05:38:24;;;;;;;4.90;4.40;;;9.10;99.90;;;;;;5033318;28;20454;-69
2022/12/22 05:40:51;;;;;;;6.17;5.57;;;9.10;99.90;;;;;;5033769;28;20507;-69
2022/12/22 05:43:17;;;;;;;7.93;5.40;;;9.10;99.90;;;;;;5033243;28;20450;-69
2022/12/22 05:45:45;;;;;;;6.80;6.10;;;9.00;99.90;;;;;;5033108;28;20981;-69
2022/12/22 05:48:13;;;;;;;6.40;5.80;;;9.00;99.90;;;;;;5033045;28;21385;-69
2022/12/22 05:50:39;;;;;;;5.27;4.77;;;9.00;99.90;;;;;;5033445;28;20461;-69
2022/12/22 05:53:07;;;;;;;3.80;3.50;;;8.90;99.90;;;;;;5032817;28;20457;-68
2022/12/22 05:55:35;;;;;;;3.07;2.70;;;8.90;99.90;;;;;;5032914;28;20520;-68
2022/12/22 05:58:01;;;;;;;1.80;1.70;;;9.00;99.90;;;;;;5032791;28;20500;-68
2022/12/22 06:00:29;;;;;;;2.03;1.60;;;9.00;99.90;;;;;;5032338;28;20442;-68
2022/12/22 06:02:57;;;;;;;2.27;2.00;;;9.20;99.90;;;;;;5032669;28;20457;-68
2022/12/22 06:05:24;;;;;;;1.90;1.80;;;9.20;99.90;;;;;;5032343;28;20477;-68
2022/12/22 06:07:51;;;;;;;1.83;1.70;;;9.30;99.90;;;;;;5031732;28;20454;-70
2022/12/22 06:10:18;;;;;;;1.60;1.50;;;9.30;99.90;;;;;;5026748;28;20453;-68
2022/12/22 06:12:45;;;;;;;1.50;1.40;;;9.40;99.90;;;;;;5031622;28;20453;-68
2022/12/22 06:15:13;;;;;;;1.70;1.60;;;9.40;99.90;;;;;;5030653;28;20508;-68
2022/12/22 06:17:40;;;;;;;1.83;1.73;;;9.40;99.90;;;;;;5031267;28;20462;-68
2022/12/22 06:20:09;;;;;;;1.77;1.67;;;9.40;99.90;;;;;;5031440;28;20449;-68
2022/12/22 06:22:36;;;;;;;1.97;1.73;;;9.30;99.90;;;;;;5031551;28;20462;-68
2022/12/22 06:25:03;;;;;;;2.07;1.70;;;9.30;99.90;;;;;;5031357;28;20478;-68
2022/12/22 06:27:29;;;;;;;1.60;1.50;;;9.30;99.90;;;;;;5027184;28;20457;-68
2022/12/22 06:29:56;;;;;;;1.40;1.30;;;9.30;99.90;;;;;;5032143;28;20520;-68
2022/12/22 06:32:22;;;;;;;1.90;1.50;;;9.30;99.90;;;;;;5032091;28;20453;-68
2022/12/22 06:34:49;;;;;;;1.43;1.33;;;9.30;99.90;;;;;;5032182;28;20532;-68
2022/12/22 06:37:17;;;;;;;2.03;1.30;;;9.30;99.90;;;;;;5031654;28;20926;-68
2022/12/22 06:39:44;;;;;;;1.50;1.30;;;9.30;99.90;;;;;;5031936;28;20442;-68
2022/12/22 06:44:57;;;;;;;1.50;1.40;;;9.30;99.90;;;;;;5031694;28;20613;-68
2022/12/22 06:47:23;;;;;;;2.40;1.60;;;9.30;99.90;;;;;;5031543;28;20450;-68
2022/12/22 06:49:51;;;;;;;1.50;1.40;;;9.30;99.90;;;;;;5031728;28;20912;-68
2022/12/22 06:52:19;;;;;;;1.70;1.60;;;9.30;99.90;;;;;;5031515;28;20481;-68
2022/12/22 06:54:45;;;;;;;3.23;1.50;;;9.30;99.90;;;;;;5031924;28;20519;-68
2022/12/22 06:57:12;;;;;;;1.70;1.60;;;9.30;99.90;;;;;;5031542;28;20454;-68
2022/12/22 06:59:38;;;;;;;1.70;1.60;;;9.30;99.90;;;;;;5031835;28;20474;-68
2022/12/22 07:02:05;;;;;;;1.90;1.80;;;9.30;99.90;;;;;;5031477;28;20539;-68
2022/12/22 07:04:32;;;;;;;1.63;1.50;;;9.30;99.90;;;;;;5023338;28;20492;-68
2022/12/22 07:06:58;;;;;;;2.47;1.90;;;9.30;99.90;;;;;;5031498;28;20453;-68
2022/12/22 07:09:26;;;;;;;1.83;1.60;;;9.30;99.90;;;;;;5031763;28;20918;-68
2022/12/22 07:11:53;;;;;;;1.80;1.70;;;9.40;99.90;;;;;;5031515;28;20441;-69
2022/12/22 07:14:19;;;;;;;1.80;1.70;;;9.40;99.90;;;;;;5031398;28;20249;-69
2022/12/22 07:16:47;;;;;;;2.07;1.87;;;9.40;99.90;;;;;;5030692;28;20956;-69
2022/12/22 07:19:14;;;;;;;2.20;2.00;;;9.40;99.90;;;;;;5031556;28;20458;-69
2022/12/22 07:21:40;;;;;;;1.97;1.87;;;9.40;99.90;;;;;;5031454;28;20450;-69
2022/12/22 07:24:07;;;;;;;1.80;1.70;;;9.40;99.90;;;;;;5031654;28;21057;-69
2022/12/22 07:26:35;;;;;;;1.73;1.63;;;9.40;99.90;;;;;;5031432;28;20536;-69
2022/12/22 07:29:02;;;;;;;2.07;1.97;;;9.50;99.90;;;;;;5030306;28;20539;-69
2022/12/22 07:31:29;;;;;;;1.93;1.83;;;9.50;99.90;;;;;;5031026;28;20446;-69
2022/12/22 07:33:55;;;;;;;1.63;1.53;;;9.50;99.90;;;;;;5031860;28;20458;-69
2022/12/22 07:36:22;;;;;;;1.60;1.50;;;9.50;99.90;;;;;;5031003;28;20465;-69
2022/12/22 07:38:51;;;;;;;1.60;1.50;;;9.50;99.90;;;;;;5031589;28;20938;-69
2022/12/22 07:44:05;;;;;;;2.47;1.50;;;9.60;99.90;;;;;;5031320;28;20521;-69
2022/12/22 07:46:35;;;;;;;2.33;1.50;;;9.70;99.90;;;;;;5030814;28;21052;-69
2022/12/22 07:51:48;;;;;;;2.70;1.60;;;9.70;99.90;;;;;;5031199;28;20425;-69
2022/12/22 07:54:16;;;;;;;4.70;1.40;;;9.80;99.90;;;;;;5030858;28;20496;-69
2022/12/22 07:56:43;;;;;;;1.87;1.57;;;9.90;99.90;;;;;;5031245;28;20462;-69
2022/12/22 07:59:12;;;;;;;1.40;1.30;;;10.00;99.90;;;;;;5031045;28;20724;-69
2022/12/22 08:01:40;;;;;;;4.90;1.40;;;10.10;99.90;;;;;;5031333;28;20500;-70
2022/12/22 08:04:06;;;;;;;2.53;1.30;;;10.20;99.90;;;;;;5031266;28;20458;-69
2022/12/22 08:06:34;;;;;;;1.63;1.20;;;10.20;99.90;;;;;;5030694;28;20478;-71
2022/12/22 08:09:00;;;;;;;3.33;1.27;;;10.30;99.90;;;;;;5030974;28;20559;-70
2022/12/22 08:11:27;;;;;;;2.10;1.30;;;10.40;99.90;;;;;;5030866;28;20575;-70
2022/12/22 08:13:53;;;;;;;2.70;1.37;;;10.40;99.90;;;;;;5031100;28;20461;-70
2022/12/22 08:16:22;;;;;;;2.20;1.40;;;10.40;99.90;;;;;;5030245;28;20985;-70
2022/12/22 08:18:49;;;;;;;2.90;1.60;;;10.40;99.90;;;;;;5030601;28;20442;-70
2022/12/22 08:21:16;;;;;;;4.30;1.67;;;10.40;99.90;;;;;;5030684;28;20454;-69
2022/12/22 08:23:43;;;;;;;1.70;1.60;;;10.40;99.90;;;;;;5030879;28;20454;-69
2022/12/22 08:26:14;;;;;;;2.97;1.50;;;10.40;99.90;;;;;;5030868;28;20610;-69
2022/12/22 08:28:44;;;;;;;1.47;1.37;;;10.40;99.90;;;;;;5023194;28;20497;-69
2022/12/22 08:31:11;;;;;;;1.40;1.27;;;10.40;99.90;;;;;;5030592;28;20484;-68
2022/12/22 08:33:39;;;;;;;1.70;1.60;;;10.40;99.90;;;;;;5023178;28;20495;-68
2022/12/22 08:36:07;;;;;;;3.70;1.40;;;10.50;99.90;;;;;;5030858;28;20520;-68
2022/12/22 08:38:34;;;;;;;1.87;1.33;;;10.40;99.90;;;;;;5030567;28;20446;-68
2022/12/22 08:41:01;;;;;;;4.47;1.53;;;10.40;99.90;;;;;;5032946;28;20456;-68
2022/12/22 08:43:30;;;;;;;1.87;1.20;;;10.40;99.90;;;;;;5034315;28;20449;-68
2022/12/22 08:45:56;;;;;;;2.87;1.50;;;10.40;99.90;;;;;;5034260;28;20473;-68
2022/12/22 08:48:23;;;;;;;2.77;1.80;;;10.40;99.90;;;;;;5034018;28;20473;-68
2022/12/22 08:50:51;;;;;;;3.67;1.83;;;10.40;99.90;;;;;;5034275;28;20480;-68
2022/12/22 08:53:17;;;;;;;2.97;1.50;;;10.40;99.90;;;;;;5034288;28;20504;-68
2022/12/22 08:55:50;;;;;;;4.20;1.50;;;10.30;99.90;;;;;;5034327;28;20469;-68
2022/12/22 08:58:17;;;;;;;3.90;1.53;;;10.30;99.90;;;;;;5033856;28;20453;-68
2022/12/22 09:00:44;;;;;;;1.87;1.40;;;10.30;99.90;;;;;;5033887;28;20446;-68
2022/12/22 09:03:11;;;;;;;3.83;1.47;;;10.30;99.90;;;;;;5034197;28;20460;-68
2022/12/22 09:05:38;;;;;;;1.90;1.70;;;10.30;99.90;;;;;;5026034;28;20535;-68
2022/12/22 09:08:06;;;;;;;1.57;1.47;;;10.30;99.90;;;;;;5033905;28;20481;-68
2022/12/22 09:10:33;;;;;;;3.37;1.80;;;10.30;99.90;;;;;;5033709;28;20489;-68
2022/12/22 09:12:59;;;;;;;2.23;1.60;;;10.30;99.90;;;;;;5033745;28;20508;-68
2022/12/22 09:15:26;;;;;;;3.10;1.97;;;10.30;99.90;;;;;;5033509;28;20515;-69
2022/12/22 09:17:53;;;;;;;3.67;1.60;;;10.30;99.90;;;;;;5033729;28;20453;-68
2022/12/22 09:20:19;;;;;;;2.00;1.53;;;10.40;99.90;;;;;;5033995;28;20450;-69
2022/12/22 09:22:46;;;;;;;1.90;1.70;;;10.40;99.90;;;;;;5033748;28;20453;-68
2022/12/22 09:25:16;;;;;;;1.77;1.30;;;10.40;99.90;;;;;;5033625;28;21353;-68
2022/12/22 09:27:43;;;;;;;4.30;1.40;;;10.40;99.90;;;;;;5026168;28;20461;-68
2022/12/22 09:30:10;;;;;;;1.93;1.60;;;10.40;99.90;;;;;;5033624;28;20597;-68
2022/12/22 09:32:37;;;;;;;2.13;1.27;;;10.40;99.90;;;;;;5033385;28;20457;-68
2022/12/22 09:35:04;;;;;;;1.80;1.33;;;10.40;99.90;;;;;;5033872;28;20474;-68
2022/12/22 09:37:31;;;;;;;3.20;1.40;;;10.50;99.90;;;;;;5032986;28;20504;-69
2022/12/22 09:39:57;;;;;;;1.23;1.13;;;10.50;99.90;;;;;;5033446;28;20454;-68
2022/12/22 09:42:25;;;;;;;2.60;1.40;;;10.50;99.90;;;;;;5033330;28;20453;-68
2022/12/22 09:44:52;;;;;;;1.93;1.23;;;10.50;99.90;;;;;;5033274;28;20969;-68
2022/12/22 09:47:23;;;;;;;1.93;1.53;;;10.50;99.90;;;;;;5032850;28;20464;-68
2022/12/22 09:49:51;;;;;;;2.80;1.30;;;10.50;99.90;;;;;;5033031;28;20540;-68
2022/12/22 09:52:25;;;;;;;2.23;1.50;;;10.50;99.90;;;;;;5031984;28;20799;-68
2022/12/22 09:54:51;;;;;;;3.67;1.20;;;10.50;99.90;;;;;;5033320;28;20474;-69
2022/12/22 09:57:18;;;;;;;1.20;1.03;;;10.50;99.90;;;;;;5032979;28;20458;-69
2022/12/22 09:59:46;;;;;;;2.80;1.10;;;10.50;99.90;;;;;;5033102;28;20442;-69
2022/12/22 10:02:25;;;;;;;1.67;1.50;;;10.50;99.90;;;;;;5033079;28;20453;-69
2022/12/22 10:05:01;;;;;;;2.00;1.40;;;10.50;99.90;;;;;;5032726;28;20478;-68
2022/12/22 10:07:32;;;;;;;1.50;1.27;;;10.50;99.90;;;;;;5032744;28;20523;-68
2022/12/22 10:10:04;;;;;;;3.43;1.30;;;10.50;99.90;;;;;;5032708;28;21009;-68
2022/12/22 10:12:30;;;;;;;1.63;1.13;;;10.40;99.90;;;;;;5032673;28;20515;-68
2022/12/22 10:14:58;;;;;;;2.13;1.27;;;10.40;99.90;;;;;;5032203;28;20533;-68
2022/12/22 10:17:27;;;;;;;1.70;1.33;;;10.40;99.90;;;;;;5032638;28;20454;-67
2022/12/22 10:20:08;;;;;;;3.53;1.20;;;10.40;99.90;;;;;;5032680;28;20508;-68
2022/12/22 10:22:40;;;;;;;5.40;1.30;;;10.40;99.90;;;;;;5032511;28;20941;-68
2022/12/22 10:25:31;;;;;;;1.70;1.30;;;10.40;99.90;;;;;;5032231;28;20575;-68
2022/12/22 10:27:59;;;;;;;2.80;1.33;;;10.40;99.90;;;;;;5026610;28;20527;-68
2022/12/22 10:30:29;;;;;;;1.53;1.10;;;10.40;99.90;;;;;;5032362;28;21031;-68
2022/12/22 10:33:06;;;;;;;1.30;1.20;;;10.40;99.90;;;;;;5032578;28;20476;-68
2022/12/22 10:35:44;;;;;;;1.97;1.23;;;10.40;99.90;;;;;;5031969;28;21041;-68
2022/12/22 10:38:18;;;;;;;1.50;1.40;;;10.40;99.90;;;;;;5032340;28;20453;-68
2022/12/22 10:40:47;;;;;;;1.60;1.50;;;10.40;99.90;;;;;;5032406;28;20504;-68
2022/12/22 10:43:20;;;;;;;1.37;1.27;;;10.50;99.90;;;;;;5032255;28;20938;-68
2022/12/22 10:45:49;;;;;;;1.40;1.30;;;10.50;99.90;;;;;;5032187;28;20469;-68
2022/12/22 10:48:16;;;;;;;2.60;1.40;;;10.50;99.90;;;;;;5032324;28;20461;-68
2022/12/22 10:50:48;;;;;;;11.33;1.80;;;10.50;99.90;;;;;;5024183;28;20536;-68
2022/12/22 10:53:15;;;;;;;1.43;1.33;;;10.50;99.90;;;;;;5032247;28;20449;-68
2022/12/22 10:55:43;;;;;;;1.57;1.47;;;10.50;99.90;;;;;;5031769;28;20469;-69
2022/12/22 10:58:18;;;;;;;1.57;1.47;;;10.60;99.90;;;;;;5032437;28;20468;-67
2022/12/22 11:00:59;;;;;;;1.70;1.50;;;10.60;99.90;;;;;;5024166;28;20445;-68
2022/12/22 11:03:31;;;;;;;1.90;1.70;;;10.60;99.90;;;;;;5032165;28;20450;-68
2022/12/22 11:05:58;;;;;;;1.77;1.67;;;10.60;99.90;;;;;;5031861;28;20470;-68
2022/12/22 11:08:25;;;;;;;1.70;1.60;;;10.60;99.90;;;;;;5031607;28;20450;-68
2022/12/22 11:10:55;;;;;;;3.37;1.67;;;10.60;99.90;;;;;;5031363;28;20535;-68
2022/12/22 11:13:43;;;;;;;4.50;2.00;;;10.70;99.90;;;;;;5031630;28;20930;-67
2022/12/22 11:16:16;;;;;;;2.50;2.30;;;10.70;99.90;;;;;;5031054;28;20889;-67
2022/12/22 11:18:54;;;;;;;2.30;2.10;;;10.70;99.90;;;;;;5031221;28;20453;-68
2022/12/22 11:21:31;;;;;;;2.33;2.23;;;10.80;99.90;;;;;;5031625;28;20527;-68
2022/12/22 11:24:07;;;;;;;2.40;2.20;;;10.80;99.90;;;;;;5031730;28;20453;-67
2022/12/22 11:26:43;;;;;;;2.53;2.10;;;10.80;99.90;;;;;;5031338;28;20469;-68
2022/12/22 11:29:27;;;;;;;2.50;2.33;;;10.80;99.90;;;;;;5031218;28;20461;-67
2022/12/22 11:32:11;;;;;;;3.27;2.20;;;10.80;99.90;;;;;;5024877;28;20463;-67
2022/12/22 11:34:51;;;;;;;2.13;2.03;;;10.80;99.90;;;;;;5031138;28;20981;-67
2022/12/22 11:37:29;;;;;;;2.27;2.07;;;11.00;99.90;;;;;;5031121;28;20457;-68
2022/12/22 11:40:01;;;;;;;2.30;2.20;;;11.40;99.90;;;;;;5031485;28;20442;-67
2022/12/22 11:42:44;;;;;;;2.27;2.07;;;11.80;99.90;;;;;;5031079;28;20958;-68
2022/12/22 11:45:24;;;;;;;2.20;2.00;;;12.20;99.90;;;;;;5031347;28;20535;-68
2022/12/22 11:48:01;;;;;;;2.47;2.27;;;12.40;99.90;;;;;;5031040;28;20450;-68
2022/12/22 11:50:40;;;;;;;2.10;2.00;;;12.40;99.90;;;;;;5031140;28;20542;-68
2022/12/22 11:53:22;;;;;;;2.80;2.27;;;12.30;99.90;;;;;;5031220;28;20511;-68
2022/12/22 11:56:04;;;;;;;3.93;2.10;;;12.10;99.90;;;;;;5023444;28;20462;-68
2022/12/22 11:58:48;;;;;;;2.43;2.10;;;11.90;99.90;;;;;;5030639;28;20457;-67
2022/12/22 12:01:34;;;;;;;2.03;1.93;;;11.80;99.90;;;;;;5031015;28;20941;-68
2022/12/22 12:04:19;;;;;;;2.00;1.90;;;11.70;99.90;;;;;;5025091;28;20457;-68
2022/12/22 12:07:03;;;;;;;2.10;2.00;;;11.60;99.90;;;;;;5030829;28;20449;-67
2022/12/22 12:09:39;;;;;;;2.30;2.20;;;11.70;99.90;;;;;;5030901;28;20449;-68
2022/12/22 12:12:16;;;;;;;2.10;1.90;;;12.00;99.90;;;;;;5030977;28;20449;-67
2022/12/22 12:14:53;;;;;;;2.23;2.03;;;12.30;99.90;;;;;;5030698;28;20465;-68
2022/12/22 12:17:31;;;;;;;1.97;1.87;;;12.20;99.90;;;;;;5034977;28;20449;-68
2022/12/22 12:20:35;;;;;;;2.10;2.00;;;12.00;99.90;;;;;;5029224;28;20503;-68
2022/12/22 12:23:16;;;;;;;5.43;2.17;;;11.80;99.90;;;;;;5024730;28;20802;-68
2022/12/22 12:25:47;;;;;;;2.43;2.00;;;12.00;99.90;;;;;;5035005;28;20461;-68
2022/12/22 12:28:23;;;;;;;1.90;1.80;;;12.50;99.90;;;;;;5034846;28;20461;-68
2022/12/22 12:30:54;;;;;;;1.90;1.80;;;12.90;99.90;;;;;;5027021;28;20484;-67
2022/12/22 12:33:29;;;;;;;2.20;2.00;;;12.90;99.90;;;;;;5034643;28;20453;-68
2022/12/22 12:36:07;;;;;;;2.10;2.00;;;12.70;99.90;;;;;;5027912;28;20519;-67
2022/12/22 12:38:45;;;;;;;2.50;2.23;;;12.20;99.90;;;;;;5034496;28;20496;-67
2022/12/22 12:41:20;;;;;;;2.47;2.30;;;11.90;99.90;;;;;;5034599;28;20856;-68
2022/12/22 12:43:50;;;;;;;2.20;2.10;;;11.70;99.90;;;;;;5034280;28;20449;-68
2022/12/22 12:46:53;;;;;;;3.20;2.10;;;11.60;99.90;;;;;;5034514;28;20818;-68
2022/12/22 12:49:57;;;;;;;2.40;2.20;;;11.50;99.90;;;;;;5034601;28;20453;-68
2022/12/22 12:52:57;;;;;;;2.70;2.50;;;11.40;99.90;;;;;;5032064;28;20461;-69
2022/12/22 12:55:30;;;;;;;3.87;3.57;;;11.30;99.90;;;;;;5034178;28;20473;-68
2022/12/22 12:57:58;;;;;;;3.57;3.27;;;11.20;99.90;;;;;;5034321;28;20454;-68
2022/12/22 13:00:45;;;;;;;3.10;2.90;;;11.20;99.90;;;;;;5033895;28;20454;-68
2022/12/22 13:03:33;;;;;;;3.07;2.87;;;11.10;99.90;;;;;;5034586;28;20532;-69
2022/12/22 13:06:01;;;;;;;4.50;4.10;;;11.10;99.90;;;;;;5027372;28;20977;-69
2022/12/22 13:08:29;;;;;;;4.10;3.20;;;11.00;99.90;;;;;;5033678;28;20445;-69
2022/12/22 13:11:34;;;;;;;3.60;3.30;;;11.00;99.90;;;;;;5033713;28;20572;-68
2022/12/22 13:14:01;;;;;;;4.10;3.50;;;11.00;99.90;;;;;;5034243;28;20450;-68
2022/12/22 13:16:34;;;;;;;3.43;3.13;;;11.00;99.90;;;;;;5033469;28;20528;-69
2022/12/22 13:19:19;;;;;;;4.23;3.53;;;10.90;99.90;;;;;;5033907;28;20458;-69
2022/12/22 13:21:46;;;;;;;3.57;3.27;;;10.90;99.90;;;;;;5031223;28;20460;-69
2022/12/22 13:24:27;;;;;;;4.37;3.80;;;10.90;99.90;;;;;;5033933;28;20450;-69
2022/12/22 13:27:00;;;;;;;4.67;4.27;;;10.80;99.90;;;;;;5032396;28;20524;-69
2022/12/22 13:29:36;;;;;;;5.17;4.70;;;10.80;99.90;;;;;;5033150;28;21015;-69
2022/12/22 13:32:24;;;;;;;4.83;4.33;;;10.80;99.90;;;;;;5033730;28;20911;-69
2022/12/22 13:35:03;;;;;;;4.50;4.10;;;10.80;99.90;;;;;;5024361;28;20523;-69
2022/12/22 13:37:29;;;;;;;5.67;5.03;;;10.80;99.90;;;;;;5033003;28;21011;-68
2022/12/22 13:40:21;;;;;;;5.23;4.73;;;10.80;99.90;;;;;;5033650;28;20442;-69
2022/12/22 13:42:51;;;;;;;4.30;3.90;;;10.80;99.90;;;;;;5018605;28;20454;-69
2022/12/22 13:45:30;;;;;;;4.90;4.40;;;10.80;99.90;;;;;;5033441;28;20531;-68
2022/12/22 13:48:00;;;;;;;5.27;4.70;;;10.80;99.90;;;;;;5033024;28;20865;-69
2022/12/22 13:50:32;;;;;;;5.30;4.40;;;10.80;99.90;;;;;;5033290;28;20496;-68
2022/12/22 13:53:02;;;;;;;5.80;4.53;;;10.80;99.90;;;;;;5033492;28;20450;-69
2022/12/22 13:55:30;;;;;;;5.10;4.60;;;10.80;99.90;;;;;;5033172;28;20477;-68
2022/12/22 13:58:05;;;;;;;4.20;3.80;;;10.70;99.90;;;;;;5033486;28;20454;-68
2022/12/22 14:00:31;;;;;;;4.43;4.03;;;10.80;99.90;;;;;;5033382;28;20448;-69
2022/12/22 14:02:58;;;;;;;7.23;4.23;;;10.70;99.90;;;;;;5033049;28;20987;-69
2022/12/22 14:05:30;;;;;;;6.03;4.23;;;10.80;99.90;;;;;;5033132;28;20482;-69
2022/12/22 14:07:59;;;;;;;4.87;4.37;;;10.70;99.90;;;;;;5032981;28;20512;-68
2022/12/22 14:10:30;;;;;;;4.10;3.80;;;10.70;99.90;;;;;;5032918;28;20486;-69
2022/12/22 14:12:57;;;;;;;4.40;4.00;;;10.70;99.90;;;;;;5025295;28;20516;-69
2022/12/22 14:15:25;;;;;;;5.40;4.53;;;10.60;99.90;;;;;;5032674;28;20497;-68
2022/12/22 14:17:51;;;;;;;5.23;4.73;;;10.60;99.90;;;;;;5032617;28;20516;-69
2022/12/22 14:20:22;;;;;;;6.30;4.03;;;10.60;99.90;;;;;;5032728;28;20450;-69
2022/12/22 14:22:53;;;;;;;5.00;4.50;;;10.50;99.90;;;;;;5032610;28;20476;-68
2022/12/22 14:25:23;;;;;;;4.73;4.27;;;10.50;99.90;;;;;;5032836;28;20469;-68
2022/12/22 14:27:53;;;;;;;5.50;4.87;;;10.50;99.90;;;;;;5032642;28;20504;-68
2022/12/22 14:30:22;;;;;;;6.77;5.03;;;10.40;99.90;;;;;;5032455;28;20949;-69
2022/12/22 14:32:53;;;;;;;4.80;4.40;;;10.40;99.90;;;;;;5032377;28;20996;-69
2022/12/22 14:35:27;;;;;;;6.30;4.83;;;10.40;99.90;;;;;;5032184;28;21036;-68
2022/12/22 14:38:06;;;;;;;6.53;5.27;;;10.30;99.90;;;;;;5032378;28;20450;-69
2022/12/22 14:40:35;;;;;;;5.83;4.90;;;10.30;99.90;;;;;;5032374;28;20453;-69
2022/12/22 14:43:05;;;;;;;5.93;5.13;;;10.30;99.90;;;;;;5032871;28;20500;-69
2022/12/22 14:45:32;;;;;;;5.97;5.37;;;10.30;99.90;;;;;;5031999;28;21003;-69
2022/12/22 14:48:00;;;;;;;5.97;5.20;;;10.30;99.90;;;;;;5031967;28;20454;-68
2022/12/22 14:50:29;;;;;;;5.20;4.70;;;10.30;99.90;;;;;;5032381;28;20453;-68
2022/12/22 14:52:57;;;;;;;5.50;4.90;;;10.30;99.90;;;;;;5024424;28;20449;-69
2022/12/22 14:55:29;;;;;;;6.00;4.50;;;10.30;99.90;;;;;;5032195;28;20470;-69
2022/12/22 14:58:00;;;;;;;6.90;5.30;;;10.30;99.90;;;;;;5024152;28;20454;-69
2022/12/22 15:00:33;;;;;;;6.97;5.60;;;10.20;99.90;;;;;;5031981;28;20710;-69
2022/12/22 15:03:04;;;;;;;7.10;5.60;;;10.20;99.90;;;;;;5024872;28;20458;-69
2022/12/22 15:05:34;;;;;;;6.70;5.33;;;10.20;99.90;;;;;;5031850;28;20473;-69
2022/12/22 15:08:01;;;;;;;6.57;5.80;;;10.20;99.90;;;;;;5031798;28;20456;-69
2022/12/22 15:10:38;;;;;;;8.80;4.73;;;10.10;99.90;;;;;;5031714;28;20454;-68
2022/12/22 15:13:11;;;;;;;10.57;5.67;;;10.10;99.90;;;;;;5024657;28;20454;-68
2022/12/22 15:15:38;;;;;;;7.83;6.27;;;10.10;99.90;;;;;;5031191;28;20973;-69
2022/12/22 15:18:06;;;;;;;9.23;6.73;;;10.10;99.90;;;;;;5031669;28;20519;-68
2022/12/22 15:20:33;;;;;;;5.93;5.07;;;10.10;99.90;;;;;;5031429;28;20457;-68
2022/12/22 15:23:00;;;;;;;6.77;5.20;;;10.10;99.90;;;;;;5031495;28;20450;-69
2022/12/22 15:25:26;;;;;;;6.70;5.37;;;10.10;99.90;;;;;;5029967;28;20480;-87
2022/12/22 15:27:53;;;;;;;6.63;4.60;;;10.10;99.90;;;;;;5032342;28;20458;-85
2022/12/22 15:30:21;;;;;;;5.03;4.50;;;10.30;99.90;;;;;;5032956;28;20454;-86
2022/12/22 15:32:49;;;;;;;6.15;5.15;;;10.40;99.90;;;;;;5029604;28;20457;-69
2022/12/22 15:35:20;;;;;;;6.33;4.80;;;10.60;99.90;;;;;;5029888;28;20231;-68
2022/12/22 15:37:47;;;;;;;6.73;4.50;;;10.50;99.90;;;;;;5030980;28;20458;-68
2022/12/22 15:40:19;;;;;;;5.70;5.10;;;10.40;99.90;;;;;;5031398;28;20488;-68
2022/12/22 15:42:46;;;;;;;5.63;4.97;;;10.30;99.90;;;;;;5031156;28;20954;-69
2022/12/22 15:45:13;;;;;;;7.47;4.60;;;10.10;99.90;;;;;;5030791;28;20482;-69
2022/12/22 15:47:41;;;;;;;10.47;5.37;;;10.00;99.90;;;;;;5031030;28;20454;-68
2022/12/22 15:50:14;;;;;;;7.47;5.10;;;9.90;99.90;;;;;;5030693;28;20454;-67
2022/12/22 15:52:47;;;;;;;8.10;5.20;;;9.80;99.90;;;;;;5030893;28;20485;-68
2022/12/22 15:55:14;;;;;;;6.00;5.17;;;9.70;99.90;;;;;;5031562;28;20473;-68
2022/12/22 15:57:41;;;;;;;5.50;4.97;;;9.70;99.90;;;;;;5031007;28;20449;-68
2022/12/22 16:00:10;;;;;;;5.70;4.90;;;9.70;99.90;;;;;;5031410;28;20450;-68
2022/12/22 16:02:37;;;;;;;6.27;5.13;;;9.70;99.90;;;;;;5030880;28;20454;-67
2022/12/22 16:05:04;;;;;;;5.20;4.53;;;9.60;99.90;;;;;;5031223;28;20465;-67
2022/12/22 16:07:31;;;;;;;4.70;4.23;;;9.60;99.90;;;;;;5030683;28;20503;-68
2022/12/22 16:10:00;;;;;;;5.03;4.50;;;9.60;99.90;;;;;;5023199;28;20445;-68
2022/12/22 16:12:27;;;;;;;5.93;4.53;;;9.50;99.90;;;;;;5030887;28;21037;-67
2022/12/22 16:14:57;;;;;;;3.57;3.33;;;9.50;99.90;;;;;;5030886;28;20477;-68
2022/12/22 16:17:26;;;;;;;4.27;3.23;;;9.50;99.90;;;;;;5031383;28;20450;-68
2022/12/22 16:19:53;;;;;;;6.37;4.20;;;9.50;99.90;;;;;;5030639;28;22327;-68
2022/12/22 16:22:29;;;;;;;4.80;3.80;;;9.50;99.90;;;;;;5031033;28;20445;-67
2022/12/22 16:24:56;;;;;;;8.60;5.40;;;9.50;99.90;;;;;;5030691;28;20561;-67
2022/12/22 16:27:24;;;;;;;3.00;2.70;;;9.50;99.90;;;;;;5030688;28;21005;-67
2022/12/22 16:29:53;;;;;;;4.13;1.97;;;9.50;99.90;;;;;;5030597;28;20465;-69
2022/12/22 16:32:25;;;;;;;2.37;2.17;;;9.50;99.90;;;;;;5030551;28;20551;-69
2022/12/22 16:34:52;;;;;;;2.50;2.30;;;9.50;99.90;;;;;;5030978;28;20489;-68
2022/12/22 16:37:18;;;;;;;2.90;2.70;;;9.50;99.90;;;;;;5030807;28;20461;-69
2022/12/22 16:39:46;;;;;;;3.23;2.87;;;9.50;99.90;;;;;;5030633;28;20461;-69
2022/12/22 16:42:14;;;;;;;3.97;2.63;;;9.50;99.90;;;;;;5030798;28;20446;-69
2022/12/22 16:44:43;;;;;;;3.63;3.20;;;9.50;99.90;;;;;;5030327;28;20870;-68
2022/12/22 16:47:17;;;;;;;2.83;2.63;;;9.40;99.90;;;;;;5030620;28;20445;-68
2022/12/22 16:49:45;;;;;;;3.20;2.80;;;9.50;99.90;;;;;;5030581;28;20449;-68